createdAt,value
2022-10-02T00:01:20.041Z,100181.91
2022-10-02T00:06:49.135Z,100181.16
2022-10-02T00:12:17.814Z,100167.97
2022-10-02T00:17:46.033Z,100166.88
2022-10-02T00:23:19.075Z,100171.28
2022-10-02T00:28:50.430Z,100160.25
2022-10-02T00:34:27.126Z,100163.00
2022-10-02T00:40:04.258Z,100164.31
2022-10-02T00:45:46.201Z,100163.50
2022-10-02T00:51:21.336Z,100169.81
2022-10-02T00:56:53.979Z,100164.06
2022-10-02T01:02:45.862Z,100155.28
2022-10-02T01:08:09.792Z,100159.38
2022-10-02T01:13:35.561Z,100155.81
2022-10-02T01:19:00.215Z,100162.13
2022-10-02T01:24:30.788Z,100147.03
2022-10-02T01:30:01.197Z,100130.59
2022-10-02T01:35:32.643Z,100109.75
2022-10-02T01:40:57.245Z,100107.00
2022-10-02T01:46:32.576Z,100105.34
2022-10-02T01:52:11.538Z,100087.25
2022-10-02T01:57:55.348Z,100085.06
2022-10-02T02:03:25.211Z,100080.66
2022-10-02T02:09:02.165Z,100059.78
2022-10-02T02:14:34.472Z,100045.53
2022-10-02T02:20:03.864Z,100038.41
2022-10-02T02:25:33.257Z,100024.97
2022-10-02T02:30:59.265Z,100018.66
2022-10-02T02:36:30.031Z,100002.50
2022-10-02T02:42:01.163Z,99992.34
2022-10-02T02:47:30.272Z,99984.09
2022-10-02T02:53:03.168Z,99980.25
2022-10-02T02:58:32.594Z,99980.25
2022-10-02T03:03:57.112Z,99992.88
2022-10-02T03:09:25.504Z,99983.00
2022-10-02T03:15:13.675Z,99965.19
2022-10-02T03:20:44.145Z,99952.84
2022-10-02T03:26:17.788Z,99939.13
2022-10-02T03:31:43.544Z,99944.03
2022-10-02T03:37:09.097Z,99933.63
2022-10-02T03:42:36.850Z,99922.09
2022-10-02T03:48:01.258Z,99930.88
2022-10-02T03:53:30.837Z,99931.69
2022-10-02T03:59:01.598Z,99937.44
2022-10-02T04:04:30.745Z,99923.47
2022-10-02T04:09:59.952Z,99917.16
2022-10-02T04:15:31.988Z,99930.31
2022-10-02T04:21:01.205Z,99926.97
2022-10-02T04:26:31.024Z,99930.84
2022-10-02T04:32:08.373Z,99945.38
2022-10-02T04:37:46.349Z,99928.34
2022-10-02T04:43:23.339Z,99917.06
2022-10-02T04:49:05.463Z,99910.97
2022-10-02T04:54:53.108Z,99905.56
2022-10-02T05:00:20.981Z,99909.38
2022-10-02T05:06:07.146Z,99901.63
2022-10-02T05:11:45.509Z,99898.91
2022-10-02T05:17:27.511Z,99896.75
2022-10-02T05:23:16.667Z,99892.34
2022-10-02T05:28:58.965Z,99853.31
2022-10-02T05:34:35.839Z,99838.94
2022-10-02T05:40:10.557Z,99815.09
2022-10-02T05:45:38.965Z,99807.69
2022-10-02T05:51:08.072Z,99817.63
2022-10-02T05:56:41.973Z,99801.00
2022-10-02T06:02:18.750Z,99804.97
2022-10-02T06:07:48.379Z,99789.03
2022-10-02T06:13:22.712Z,99777.97
2022-10-02T06:18:52.260Z,99770.81
2022-10-02T06:24:26.336Z,99765.56
2022-10-02T06:29:55.485Z,99731.22
2022-10-02T06:35:33.379Z,99724.97
2022-10-02T06:41:08.697Z,99720.19
2022-10-02T06:46:43.176Z,99724.59
2022-10-02T06:52:20.253Z,99717.34
2022-10-02T06:58:01.272Z,99700.03
2022-10-02T07:03:49.527Z,99685.91
2022-10-02T07:09:53.136Z,99698.84
2022-10-02T07:15:37.093Z,99699.00
2022-10-02T07:21:11.249Z,99701.78
2022-10-02T07:26:47.738Z,99702.97
2022-10-02T07:32:41.854Z,99689.81
2022-10-02T07:38:43.368Z,99696.41
2022-10-02T07:44:20.474Z,99696.19
2022-10-02T07:49:52.791Z,99676.38
2022-10-02T07:55:21.083Z,99663.06
2022-10-02T08:00:50.961Z,99649.94
2022-10-02T08:06:16.918Z,99633.50
2022-10-02T08:11:50.333Z,99623.81
2022-10-02T08:17:27.663Z,99603.72
2022-10-02T08:22:54.693Z,99606.41
2022-10-02T08:28:26.811Z,99609.28
2022-10-02T08:33:51.999Z,99593.69
2022-10-02T08:39:57.454Z,99592.03
2022-10-02T08:45:58.025Z,99577.28
2022-10-02T08:52:14.125Z,99582.25
2022-10-02T08:58:13.072Z,99582.25
2022-10-02T09:04:20.203Z,99568.06
2022-10-02T09:10:29.954Z,99569.19
2022-10-02T09:16:08.880Z,99559.63
2022-10-02T09:21:51.377Z,99553.31
2022-10-02T09:27:37.659Z,99544.53
2022-10-02T09:33:40.974Z,99531.66
2022-10-02T09:39:45.278Z,99521.47
2022-10-02T09:45:45.738Z,99535.22
2022-10-02T09:51:41.900Z,99500.44
2022-10-02T09:57:43.966Z,99492.53
2022-10-02T10:03:38.310Z,99459.41
2022-10-02T10:09:40.942Z,99447.34
2022-10-02T10:15:42.301Z,99407.88
2022-10-02T10:21:51.974Z,99379.59
2022-10-02T10:27:43.177Z,99379.91
2022-10-02T10:33:41.285Z,99360.50
2022-10-02T10:39:30.662Z,99367.09
2022-10-02T10:45:28.097Z,99347.38
2022-10-02T10:51:03.895Z,99337.22
2022-10-02T10:56:38.893Z,99327.63
2022-10-02T11:02:29.774Z,99306.41
2022-10-02T11:08:10.977Z,99299.88
2022-10-02T11:13:59.370Z,99288.16
2022-10-02T11:19:42.950Z,99271.97
2022-10-02T11:25:29.108Z,99264.28
2022-10-02T11:31:06.728Z,99253.84
2022-10-02T11:37:00.790Z,99260.84
2022-10-02T11:43:03.320Z,99240.78
2022-10-02T11:48:49.785Z,99234.44
2022-10-02T11:54:29.517Z,99221.03
2022-10-02T12:00:10.511Z,99217.94
2022-10-02T12:05:55.360Z,99211.97
2022-10-02T12:11:32.532Z,99199.25
2022-10-02T12:17:13.156Z,99205.31
2022-10-02T12:23:05.449Z,99205.69
2022-10-02T12:28:39.685Z,99186.56
2022-10-02T12:34:15.268Z,99158.13
2022-10-02T12:39:48.172Z,99160.38
2022-10-02T12:45:48.389Z,99149.47
2022-10-02T12:51:35.648Z,99126.06
2022-10-02T12:57:48.911Z,99138.75
2022-10-02T13:04:01.025Z,99129.72
2022-10-02T13:09:35.748Z,99121.28
2022-10-02T13:15:27.404Z,99124.59
2022-10-02T13:21:06.199Z,99100.56
2022-10-02T13:26:38.138Z,99087.66
2022-10-02T13:32:22.682Z,99077.09
2022-10-02T13:38:01.089Z,99072.16
2022-10-02T13:43:57.800Z,99062.31
2022-10-02T13:49:38.048Z,99074.84
2022-10-02T13:55:20.111Z,99094.06
2022-10-02T14:01:00.160Z,99102.94
2022-10-02T14:06:30.318Z,99107.34
2022-10-02T14:12:10.477Z,99118.84
2022-10-02T14:17:43.059Z,99109.66
2022-10-02T14:23:22.000Z,99119.50
2022-10-02T14:29:17.526Z,99103.06
2022-10-02T14:35:09.664Z,99110.16
2022-10-02T14:40:47.149Z,99108.81
2022-10-02T14:46:36.125Z,99103.91
2022-10-02T14:52:18.004Z,99110.50
2022-10-02T14:57:57.993Z,99110.25
2022-10-02T15:03:55.555Z,99119.31
2022-10-02T15:09:24.677Z,99116.06
2022-10-02T15:15:03.727Z,99112.56
2022-10-02T15:20:40.570Z,99113.69
2022-10-02T15:26:17.181Z,99126.25
2022-10-02T15:32:04.082Z,99124.94
2022-10-02T15:37:41.029Z,99122.19
2022-10-02T15:43:27.222Z,99121.38
2022-10-02T15:49:05.867Z,99127.91
2022-10-02T15:54:51.077Z,99126.28
2022-10-02T16:00:18.289Z,99133.09
2022-10-02T16:05:51.704Z,99151.38
2022-10-02T16:11:36.151Z,99137.75
2022-10-02T16:17:26.850Z,99143.78
2022-10-02T16:23:07.127Z,99149.50
2022-10-02T16:28:51.106Z,99143.75
2022-10-02T16:34:29.981Z,99147.59
2022-10-02T16:40:00.735Z,99151.97
2022-10-02T16:45:50.358Z,99167.53
2022-10-02T16:51:26.775Z,99190.69
2022-10-02T16:56:57.238Z,99187.09
2022-10-02T17:02:34.713Z,99186.75
2022-10-02T17:08:05.287Z,99187.75
2022-10-02T17:13:37.448Z,99179.75
2022-10-02T17:19:16.659Z,99177.31
2022-10-02T17:24:53.912Z,99189.47
2022-10-02T17:30:23.853Z,99190.22
2022-10-02T17:35:56.296Z,99203.53
2022-10-02T17:41:48.980Z,99205.97
2022-10-02T17:47:32.787Z,99218.47
2022-10-02T17:53:30.488Z,99211.56
2022-10-02T17:59:07.134Z,99209.00
2022-10-02T18:04:46.775Z,99205.72
2022-10-02T18:10:25.057Z,99217.13
2022-10-02T18:16:08.578Z,99210.63
2022-10-02T18:21:42.301Z,99208.38
2022-10-02T18:27:27.346Z,99205.09
2022-10-02T18:33:09.607Z,99193.47
2022-10-02T18:38:55.945Z,99198.00
2022-10-02T18:44:45.195Z,99211.59
2022-10-02T18:50:27.988Z,99208.69
2022-10-02T18:56:05.568Z,99207.31
2022-10-02T19:01:51.822Z,99207.06
2022-10-02T19:07:20.721Z,99210.84
2022-10-02T19:12:45.292Z,99212.97
2022-10-02T19:18:19.140Z,99214.38
2022-10-02T19:23:52.238Z,99212.72
2022-10-02T19:29:27.378Z,99213.97
2022-10-02T19:35:02.209Z,99224.38
2022-10-02T19:40:34.418Z,99226.75
2022-10-02T19:46:04.100Z,99221.06
2022-10-02T19:51:43.492Z,99201.81
2022-10-02T19:57:14.860Z,99212.00
2022-10-02T20:02:45.483Z,99216.75
2022-10-02T20:08:17.907Z,99221.34
2022-10-02T20:13:49.251Z,99227.75
2022-10-02T20:19:17.968Z,99220.28
2022-10-02T20:24:51.433Z,99220.22
2022-10-02T20:30:17.906Z,99216.63
2022-10-02T20:35:46.126Z,99239.19
2022-10-02T20:41:19.615Z,99251.22
2022-10-02T20:47:22.056Z,99255.03
2022-10-02T20:53:20.569Z,99249.84
2022-10-02T20:59:08.374Z,99239.84
2022-10-02T21:05:27.156Z,99248.47
2022-10-02T21:11:15.076Z,99247.94
2022-10-02T21:17:14.225Z,99261.06
2022-10-02T21:23:09.074Z,99254.06
2022-10-02T21:29:08.307Z,99262.38
2022-10-02T21:34:48.115Z,99259.66
2022-10-02T21:40:48.445Z,99275.84
2022-10-02T21:46:45.222Z,99280.94
2022-10-02T21:52:48.541Z,99286.25
2022-10-02T21:58:45.704Z,99278.22
2022-10-02T22:04:40.446Z,99286.16
2022-10-02T22:10:15.607Z,99293.03
2022-10-02T22:15:48.494Z,99304.53
2022-10-02T22:21:38.095Z,99300.00
2022-10-02T22:27:19.186Z,99300.22
2022-10-02T22:33:12.152Z,99311.84
2022-10-02T22:38:38.496Z,99307.31
2022-10-02T22:44:10.341Z,99327.59
2022-10-02T22:49:44.261Z,99328.75
2022-10-02T22:55:15.393Z,99332.88
2022-10-02T23:00:55.371Z,99333.97
2022-10-02T23:06:30.619Z,99336.81
2022-10-02T23:12:06.485Z,99347.69
2022-10-02T23:17:38.662Z,99349.41
2022-10-02T23:23:14.826Z,99359.03
2022-10-02T23:28:46.949Z,99373.28
2022-10-02T23:34:25.016Z,99376.47
2022-10-02T23:39:59.076Z,99371.78
2022-10-02T23:45:30.753Z,99372.59
2022-10-02T23:51:05.523Z,99374.56
2022-10-02T23:57:01.973Z,99369.00
